createdAt,value
2022-11-08T00:03:01.603Z,29.13
2022-11-08T00:06:22.540Z,35.40
2022-11-08T00:09:43.498Z,29.67
2022-11-08T00:13:03.987Z,32.03
2022-11-08T00:16:06.258Z,26.40
2022-11-08T00:19:08.410Z,29.95
2022-11-08T00:22:10.936Z,25.83
2022-11-08T00:25:13.111Z,28.10
2022-11-08T00:28:15.660Z,29.35
2022-11-08T00:31:18.071Z,27.00
2022-11-08T00:34:20.239Z,23.80
2022-11-08T00:37:23.005Z,24.70
2022-11-08T00:40:25.184Z,26.08
2022-11-08T00:43:27.391Z,24.08
2022-11-08T00:46:29.791Z,29.77
2022-11-08T00:49:32.030Z,24.20
2022-11-08T00:52:34.195Z,26.10
2022-11-08T00:55:36.352Z,26.42
2022-11-08T00:58:38.883Z,26.40
2022-11-08T01:01:41.814Z,27.80
2022-11-08T01:04:44.137Z,28.87
2022-11-08T01:07:46.593Z,29.97
2022-11-08T01:10:50.349Z,31.60
2022-11-08T01:13:55.845Z,29.50
2022-11-08T01:16:58.022Z,28.80
2022-11-08T01:20:00.295Z,30.70
2022-11-08T01:23:02.523Z,27.33
2022-11-08T01:26:06.294Z,23.38
2022-11-08T01:29:08.466Z,23.50
2022-11-08T01:32:10.609Z,23.10
2022-11-08T01:35:12.784Z,22.77
2022-11-08T01:38:15.385Z,22.20
2022-11-08T01:41:18.157Z,22.05
2022-11-08T01:44:21.776Z,24.20
2022-11-08T01:47:23.972Z,25.55
2022-11-08T01:50:26.201Z,24.20
2022-11-08T01:53:29.462Z,21.73
2022-11-08T01:56:31.868Z,22.63
2022-11-08T01:59:35.859Z,21.50
2022-11-08T02:02:38.881Z,20.63
2022-11-08T02:05:41.042Z,22.57
2022-11-08T02:08:43.883Z,18.97
2022-11-08T02:11:46.800Z,21.08
2022-11-08T02:14:48.975Z,20.02
2022-11-08T02:17:51.218Z,18.73
2022-11-08T02:21:12.955Z,19.27
2022-11-08T02:24:15.750Z,18.63
2022-11-08T02:27:18.135Z,19.35
2022-11-08T02:30:20.572Z,17.63
2022-11-08T02:33:23.373Z,18.85
2022-11-08T02:36:25.684Z,19.23
2022-11-08T02:39:28.955Z,18.90
2022-11-08T02:42:31.060Z,19.92
2022-11-08T02:45:33.233Z,18.98
2022-11-08T02:48:35.704Z,20.75
2022-11-08T02:51:37.976Z,20.38
2022-11-08T02:54:40.185Z,18.40
2022-11-08T02:57:42.367Z,20.02
2022-11-08T03:00:44.563Z,20.15
2022-11-08T03:03:46.779Z,19.98
2022-11-08T03:06:49.052Z,20.73
2022-11-08T03:09:51.191Z,19.23
2022-11-08T03:12:57.256Z,18.75
2022-11-08T03:16:01.666Z,20.80
2022-11-08T03:19:03.877Z,20.02
2022-11-08T03:22:06.016Z,19.97
2022-11-08T03:25:08.464Z,19.03
2022-11-08T03:28:10.996Z,19.20
2022-11-08T03:31:13.141Z,18.92
2022-11-08T03:34:15.388Z,18.02
2022-11-08T03:37:17.569Z,18.23
2022-11-08T03:40:19.993Z,18.83
2022-11-08T03:43:22.178Z,17.48
2022-11-08T03:46:24.404Z,17.10
2022-11-08T03:49:27.202Z,17.63
2022-11-08T03:52:29.383Z,18.17
2022-11-08T03:55:31.878Z,17.93
2022-11-08T03:58:35.501Z,17.13
2022-11-08T04:01:38.168Z,17.05
2022-11-08T04:04:40.467Z,18.55
2022-11-08T04:07:42.605Z,18.50
2022-11-08T04:10:44.971Z,17.37
2022-11-08T04:14:05.711Z,19.33
2022-11-08T04:17:07.937Z,18.77
2022-11-08T04:20:28.792Z,18.98
2022-11-08T04:23:31.863Z,18.23
2022-11-08T04:26:34.040Z,17.87
2022-11-08T04:29:36.234Z,20.23
2022-11-08T04:32:38.368Z,20.17
2022-11-08T04:35:40.512Z,19.92
2022-11-08T04:38:43.122Z,18.73
2022-11-08T04:41:45.578Z,18.90
2022-11-08T04:44:47.798Z,19.70
2022-11-08T04:47:50.026Z,18.98
2022-11-08T04:50:52.233Z,18.77
2022-11-08T04:53:54.768Z,18.25
2022-11-08T04:56:56.938Z,19.27
2022-11-08T04:59:59.211Z,17.25
2022-11-08T05:03:04.406Z,18.15
2022-11-08T05:06:07.987Z,18.55
2022-11-08T05:09:14.421Z,19.65
2022-11-08T05:12:24.851Z,18.70
2022-11-08T05:15:27.403Z,19.10
2022-11-08T05:18:30.207Z,18.52
2022-11-08T05:21:50.994Z,18.70
2022-11-08T05:24:53.183Z,17.67
2022-11-08T05:27:55.328Z,17.30
2022-11-08T05:30:57.694Z,17.15
2022-11-08T05:34:00.907Z,19.30
2022-11-08T05:37:03.289Z,18.55
2022-11-08T05:40:05.832Z,19.07
2022-11-08T05:43:17.228Z,19.87
2022-11-08T05:46:20.849Z,20.35
2022-11-08T05:49:23.582Z,20.75
2022-11-08T05:52:25.841Z,19.92
2022-11-08T05:55:30.621Z,20.80
2022-11-08T05:58:33.984Z,18.83
2022-11-08T06:01:36.723Z,17.70
2022-11-08T06:04:39.211Z,17.23
2022-11-08T06:07:41.446Z,16.15
2022-11-08T06:10:44.171Z,16.27
2022-11-08T06:13:47.019Z,16.53
2022-11-08T06:16:49.319Z,16.58
2022-11-08T06:19:51.826Z,15.60
2022-11-08T06:22:55.268Z,13.75
2022-11-08T06:26:03.410Z,13.70
2022-11-08T06:29:05.618Z,17.07
2022-11-08T06:32:11.139Z,16.50
2022-11-08T06:35:13.374Z,17.15
2022-11-08T06:38:15.773Z,17.23
2022-11-08T06:41:19.130Z,17.95
2022-11-08T06:44:23.735Z,16.20
2022-11-08T06:47:28.450Z,20.35
2022-11-08T06:50:39.881Z,20.02
2022-11-08T06:53:46.598Z,17.08
2022-11-08T06:56:55.928Z,16.55
2022-11-08T06:59:59.945Z,17.27
2022-11-08T07:03:07.710Z,22.67
2022-11-08T07:06:11.587Z,24.25
2022-11-08T07:09:15.536Z,15.45
2022-11-08T07:12:23.457Z,22.30
2022-11-08T07:15:35.447Z,21.97
2022-11-08T07:18:38.190Z,24.58
2022-11-08T07:21:43.220Z,23.98
2022-11-08T07:24:48.648Z,17.95
2022-11-08T07:28:59.588Z,25.52
2022-11-08T07:32:01.792Z,20.83
2022-11-08T07:35:05.435Z,17.73
2022-11-08T07:38:16.088Z,27.10
2022-11-08T07:41:18.279Z,26.60
2022-11-08T07:44:20.507Z,31.50
2022-11-08T07:47:22.762Z,38.13
2022-11-08T07:50:27.416Z,17.70
2022-11-08T07:53:30.077Z,20.75
2022-11-08T07:56:44.761Z,20.30
2022-11-08T07:59:47.543Z,15.88
2022-11-08T08:02:50.459Z,29.47
2022-11-08T08:06:00.750Z,32.92
2022-11-08T08:09:03.839Z,43.88
2022-11-08T08:12:06.933Z,39.90
2022-11-08T08:15:10.031Z,24.73
2022-11-08T08:18:12.837Z,19.60
2022-11-08T08:21:15.601Z,31.85
2022-11-08T08:24:18.449Z,23.08
2022-11-08T08:27:21.209Z,32.22
2022-11-08T08:30:24.996Z,16.17
2022-11-08T08:33:29.399Z,15.10
2022-11-08T08:36:32.442Z,35.45
2022-11-08T08:39:35.372Z,15.75
2022-11-08T08:42:38.398Z,13.52
2022-11-08T08:45:43.268Z,15.13
2022-11-08T08:48:59.029Z,14.75
2022-11-08T08:52:12.041Z,15.73
2022-11-08T08:55:15.137Z,15.17
2022-11-08T08:58:17.491Z,14.02
2022-11-08T09:01:40.486Z,16.25
2022-11-08T09:05:02.928Z,14.43
2022-11-08T09:08:05.440Z,17.08
2022-11-08T09:11:08.052Z,14.47
2022-11-08T09:14:10.427Z,14.40
2022-11-08T09:17:12.738Z,14.48
2022-11-08T09:20:15.045Z,15.88
2022-11-08T09:23:17.920Z,13.80
2022-11-08T09:26:20.558Z,14.67
2022-11-08T09:29:24.979Z,13.88
2022-11-08T09:32:46.583Z,14.40
2022-11-08T09:35:54.026Z,15.38
2022-11-08T09:38:56.252Z,15.70
2022-11-08T09:42:07.605Z,14.73
2022-11-08T09:45:32.247Z,15.43
2022-11-08T09:48:37.095Z,15.55
2022-11-08T09:51:43.097Z,14.77
2022-11-08T09:54:49.341Z,15.20
2022-11-08T09:58:05.443Z,15.20
2022-11-08T10:01:10.240Z,14.73
2022-11-08T10:04:16.099Z,15.93
2022-11-08T10:07:45.629Z,14.77
2022-11-08T10:10:57.519Z,15.27
2022-11-08T10:14:10.403Z,15.80
2022-11-08T10:17:17.396Z,16.15
2022-11-08T10:20:38.440Z,17.27
2022-11-08T10:23:45.548Z,17.67
2022-11-08T10:26:48.113Z,17.08
2022-11-08T10:29:52.160Z,16.07
2022-11-08T10:32:56.719Z,15.30
2022-11-08T10:36:07.023Z,15.93
2022-11-08T10:39:09.958Z,15.93
2022-11-08T10:42:34.789Z,16.85
2022-11-08T10:45:37.690Z,16.10
2022-11-08T10:48:43.063Z,16.05
2022-11-08T10:52:01.578Z,15.35
2022-11-08T10:55:45.143Z,14.73
2022-11-08T10:58:53.598Z,15.90
2022-11-08T11:02:02.772Z,15.43
2022-11-08T11:05:18.428Z,16.13
2022-11-08T11:08:21.856Z,16.35
2022-11-08T11:11:27.064Z,17.42
2022-11-08T11:14:31.616Z,16.67
2022-11-08T11:17:39.093Z,16.00
2022-11-08T11:20:42.593Z,14.80
2022-11-08T11:23:51.055Z,15.35
2022-11-08T11:27:05.400Z,15.77
2022-11-08T11:30:26.548Z,15.65
2022-11-08T11:33:30.297Z,13.80
2022-11-08T11:36:37.627Z,15.23
2022-11-08T11:39:52.693Z,14.88
2022-11-08T11:43:13.577Z,14.70
2022-11-08T11:46:16.257Z,13.40
2022-11-08T11:49:20.356Z,14.97
2022-11-08T11:52:25.748Z,14.30
2022-11-08T11:55:46.318Z,14.27
2022-11-08T11:59:01.057Z,14.25
2022-11-08T12:02:22.913Z,14.15
2022-11-08T12:05:25.668Z,14.20
2022-11-08T12:08:28.400Z,13.35
2022-11-08T12:11:42.283Z,13.20
2022-11-08T12:14:55.170Z,15.07
2022-11-08T12:17:57.532Z,14.57
2022-11-08T12:21:20.005Z,13.47
2022-11-08T12:24:49.073Z,14.57
2022-11-08T12:28:05.865Z,14.43
2022-11-08T12:31:16.391Z,14.50
2022-11-08T12:34:19.393Z,14.93
2022-11-08T12:37:36.993Z,14.53
2022-11-08T12:40:48.958Z,14.27
2022-11-08T12:44:04.501Z,14.00
2022-11-08T12:47:23.192Z,15.18
2022-11-08T12:50:30.141Z,14.73
2022-11-08T12:53:51.856Z,15.00
2022-11-08T12:56:59.526Z,14.88
2022-11-08T13:00:15.738Z,15.85
2022-11-08T13:03:32.844Z,15.75
2022-11-08T13:06:43.467Z,15.70
2022-11-08T13:09:49.119Z,16.07
2022-11-08T13:13:03.186Z,17.77
2022-11-08T13:16:08.645Z,16.75
2022-11-08T13:19:31.753Z,16.67
2022-11-08T13:22:41.171Z,16.42
2022-11-08T13:25:44.695Z,16.70
2022-11-08T13:28:48.094Z,17.98
2022-11-08T13:32:02.163Z,16.92
2022-11-08T13:35:09.581Z,17.38
2022-11-08T13:38:22.855Z,17.77
2022-11-08T13:41:26.711Z,16.93
2022-11-08T13:44:48.120Z,16.85
2022-11-08T13:47:53.549Z,15.45
2022-11-08T13:50:57.335Z,16.30
2022-11-08T13:54:08.430Z,16.02
2022-11-08T13:57:18.054Z,17.43
2022-11-08T14:00:35.675Z,16.83
2022-11-08T14:03:47.249Z,18.25
2022-11-08T14:07:25.402Z,16.27
2022-11-08T14:10:32.567Z,17.42
2022-11-08T14:13:58.114Z,17.67
2022-11-08T14:17:10.179Z,18.25
2022-11-08T14:20:18.244Z,16.95
2022-11-08T14:23:21.375Z,18.52
2022-11-08T14:26:24.720Z,19.10
2022-11-08T14:29:26.990Z,18.97
2022-11-08T14:32:29.300Z,18.15
2022-11-08T14:35:31.931Z,18.15
2022-11-08T14:38:45.268Z,17.33
2022-11-08T14:41:55.257Z,19.65
2022-11-08T14:44:58.853Z,17.80
2022-11-08T14:48:04.628Z,19.67
2022-11-08T14:51:07.006Z,18.73
2022-11-08T14:54:23.341Z,19.20
2022-11-08T14:57:30.542Z,20.08
2022-11-08T15:00:32.990Z,20.20
2022-11-08T15:03:35.549Z,20.23
2022-11-08T15:06:42.500Z,19.63
2022-11-08T15:09:45.162Z,19.75
2022-11-08T15:12:47.458Z,19.95
2022-11-08T15:15:52.095Z,19.53
2022-11-08T15:18:54.932Z,18.70
2022-11-08T15:21:58.166Z,19.05
2022-11-08T15:25:23.427Z,19.85
2022-11-08T15:28:34.783Z,18.42
2022-11-08T15:31:41.304Z,19.17
2022-11-08T15:34:44.100Z,18.52
2022-11-08T15:37:49.277Z,19.58
2022-11-08T15:40:52.870Z,19.73
2022-11-08T15:44:06.274Z,18.55
2022-11-08T15:47:28.561Z,18.40
2022-11-08T15:50:31.286Z,20.60
2022-11-08T15:53:35.925Z,20.15
2022-11-08T15:56:39.285Z,20.02
2022-11-08T15:59:44.061Z,20.10
2022-11-08T16:02:48.421Z,19.00
2022-11-08T16:05:50.720Z,19.27
2022-11-08T16:08:53.318Z,21.63
2022-11-08T16:11:55.621Z,20.45
2022-11-08T16:14:58.180Z,20.75
2022-11-08T16:18:01.233Z,20.73
2022-11-08T16:21:03.436Z,19.98
2022-11-08T16:24:05.770Z,20.13
2022-11-08T16:27:09.044Z,20.63
2022-11-08T16:30:16.623Z,20.42
2022-11-08T16:33:18.916Z,19.73
2022-11-08T16:36:22.354Z,20.70
2022-11-08T16:39:28.331Z,21.90
2022-11-08T16:42:30.836Z,21.17
2022-11-08T16:46:03.197Z,21.27
2022-11-08T16:48:58.052Z,22.27
2022-11-08T16:52:00.388Z,21.98
2022-11-08T16:55:04.259Z,21.05
2022-11-08T16:58:07.781Z,20.65
2022-11-08T17:01:19.032Z,22.02
2022-11-08T17:04:21.496Z,21.63
2022-11-08T17:07:25.656Z,20.67
2022-11-08T17:10:29.141Z,22.95
2022-11-08T17:13:34.925Z,21.75
2022-11-08T17:16:40.088Z,22.30
2022-11-08T17:19:42.599Z,21.87
2022-11-08T17:22:45.126Z,22.30
2022-11-08T17:25:47.502Z,22.95
2022-11-08T17:28:49.807Z,22.20
2022-11-08T17:31:52.504Z,24.35
2022-11-08T17:34:55.117Z,23.60
2022-11-08T17:37:57.478Z,22.83
2022-11-08T17:41:06.721Z,23.23
2022-11-08T17:44:09.428Z,22.02
2022-11-08T17:47:11.864Z,24.23
2022-11-08T17:50:14.795Z,21.50
2022-11-08T17:53:17.512Z,24.40
2022-11-08T17:56:20.033Z,24.55
2022-11-08T17:59:22.385Z,25.40
2022-11-08T18:02:25.488Z,21.83
2022-11-08T18:05:27.888Z,24.53
2022-11-08T18:08:31.536Z,25.02
2022-11-08T18:11:33.931Z,25.65
2022-11-08T18:14:36.426Z,25.15
2022-11-08T18:17:38.901Z,24.13
2022-11-08T18:20:58.928Z,23.57
2022-11-08T18:24:06.901Z,26.48
2022-11-08T18:27:11.286Z,24.90
2022-11-08T18:30:13.867Z,24.80
2022-11-08T18:33:17.310Z,23.58
2022-11-08T18:36:20.902Z,24.43
2022-11-08T18:39:23.690Z,24.60
2022-11-08T18:42:26.119Z,23.58
2022-11-08T18:45:28.566Z,22.60
2022-11-08T18:48:32.399Z,23.55
2022-11-08T18:51:34.885Z,24.23
2022-11-08T18:54:37.945Z,25.98
2022-11-08T18:57:40.986Z,23.40
2022-11-08T19:00:43.371Z,23.60
2022-11-08T19:03:46.103Z,24.92
2022-11-08T19:06:54.355Z,24.73
2022-11-08T19:09:57.574Z,24.63
2022-11-08T19:13:04.574Z,23.42
2022-11-08T19:16:15.136Z,23.90
2022-11-08T19:19:18.249Z,23.35
2022-11-08T19:22:21.099Z,23.03
2022-11-08T19:25:23.988Z,25.38
2022-11-08T19:28:31.656Z,23.17
2022-11-08T19:31:39.055Z,22.95
2022-11-08T19:34:41.926Z,22.63
2022-11-08T19:37:45.067Z,22.30
2022-11-08T19:40:48.466Z,23.23
2022-11-08T19:43:51.857Z,23.58
2022-11-08T19:46:54.306Z,22.67
2022-11-08T19:49:56.589Z,20.77
2022-11-08T19:52:58.788Z,23.13
2022-11-08T19:56:05.802Z,21.85
2022-11-08T19:59:08.747Z,21.73
2022-11-08T20:02:11.427Z,20.98
2022-11-08T20:05:13.672Z,20.15
2022-11-08T20:08:16.054Z,20.83
2022-11-08T20:11:19.976Z,19.67
2022-11-08T20:14:22.282Z,19.27
2022-11-08T20:17:24.710Z,20.38
2022-11-08T20:20:29.685Z,20.95
2022-11-08T20:23:32.917Z,18.93
2022-11-08T20:26:38.543Z,18.33
2022-11-08T20:29:40.987Z,18.02
2022-11-08T20:32:43.220Z,19.20
2022-11-08T20:35:46.008Z,19.20
2022-11-08T20:38:48.959Z,18.97
2022-11-08T20:41:51.301Z,18.58
2022-11-08T20:44:53.651Z,18.73
2022-11-08T20:47:55.827Z,19.88
2022-11-08T20:50:58.969Z,19.50
2022-11-08T20:54:01.824Z,17.90
2022-11-08T20:57:03.982Z,17.60
2022-11-08T21:00:13.029Z,18.27
2022-11-08T21:03:18.920Z,18.15
2022-11-08T21:06:22.734Z,18.75
2022-11-08T21:09:39.383Z,18.60
2022-11-08T21:12:44.623Z,19.98
2022-11-08T21:15:47.355Z,18.27
2022-11-08T21:18:49.662Z,18.77
2022-11-08T21:22:12.050Z,18.40
2022-11-08T21:25:14.602Z,18.00
2022-11-08T21:28:17.210Z,16.77
2022-11-08T21:31:19.855Z,18.15
2022-11-08T21:34:22.031Z,17.85
2022-11-08T21:37:24.226Z,18.23
2022-11-08T21:40:26.454Z,17.13
2022-11-08T21:43:28.949Z,17.40
2022-11-08T21:46:31.243Z,18.42
2022-11-08T21:49:33.456Z,19.42
2022-11-08T21:52:35.610Z,16.42
2022-11-08T21:55:37.745Z,17.50
2022-11-08T21:58:39.926Z,17.05
2022-11-08T22:01:42.178Z,16.70
2022-11-08T22:04:44.401Z,16.65
2022-11-08T22:07:46.725Z,16.65
2022-11-08T22:10:48.895Z,16.83
2022-11-08T22:13:51.077Z,18.52
2022-11-08T22:16:53.222Z,17.83
2022-11-08T22:19:55.439Z,17.17
2022-11-08T22:22:57.751Z,16.15
2022-11-08T22:26:00.049Z,16.30
2022-11-08T22:29:03.478Z,16.67
2022-11-08T22:32:05.740Z,17.02
2022-11-08T22:35:08.131Z,16.27
2022-11-08T22:38:10.381Z,17.13
2022-11-08T22:41:16.393Z,17.00
2022-11-08T22:44:18.937Z,17.15
2022-11-08T22:47:21.113Z,15.00
2022-11-08T22:50:23.299Z,17.02
2022-11-08T22:53:25.478Z,17.13
2022-11-08T22:56:27.760Z,17.63
2022-11-08T22:59:29.923Z,15.77
2022-11-08T23:02:33.357Z,15.80
2022-11-08T23:05:35.668Z,16.15
2022-11-08T23:08:37.962Z,16.23
2022-11-08T23:11:58.696Z,15.63
2022-11-08T23:15:19.468Z,16.17
2022-11-08T23:18:22.113Z,16.77
2022-11-08T23:21:43.101Z,15.52
2022-11-08T23:24:45.484Z,16.23
2022-11-08T23:28:06.285Z,16.20
2022-11-08T23:31:30.395Z,15.20
2022-11-08T23:34:32.549Z,15.15
2022-11-08T23:37:34.702Z,15.85
2022-11-08T23:40:55.671Z,14.70
2022-11-08T23:44:16.561Z,15.53
2022-11-08T23:47:18.714Z,15.43
2022-11-08T23:50:20.966Z,14.52
2022-11-08T23:53:26.705Z,15.35
2022-11-08T23:56:29.323Z,15.10
2022-11-08T23:59:31.542Z,15.63
